Time,TemperatureF,DewpointF,PressureIn,WindDirection,WindDirectionDegrees,WindSpeedMPH,WindSpeedGustMPH,Humidity,HourlyPrecipIn,Conditions,Clouds,dailyrainin,SolarRadiationWatts/m^2,SoftwareType,DateUTC
2013-06-06 00:02:00,49.0,47.0,-100.00,NE,54,6.0,13.0,92,0.00,,,0.69,0.000000,,2013-06-06 05:02:00,
2013-06-06 00:32:00,48.0,46.0,-100.00,ENE,59,7.0,12.0,94,0.00,,,0.69,0.000000,,2013-06-06 05:32:00,
2013-06-06 00:42:00,48.0,46.0,-100.00,ENE,59,7.0,12.0,94,0.00,,,0.69,0.000000,,2013-06-06 05:42:00,
2013-06-06 00:52:00,48.0,46.0,-100.00,ENE,59,7.0,12.0,94,0.00,,,0.69,0.000000,,2013-06-06 05:52:00,
2013-06-06 01:02:00,48.0,46.0,-100.00,ENE,59,7.0,12.0,94,0.00,,,0.69,0.000000,,2013-06-06 06:02:00,
2013-06-06 01:33:00,48.0,46.0,-100.00,NE,38,7.0,12.0,92,0.00,,,0.60,0.000000,,2013-06-06 06:33:00,
2013-06-06 01:42:00,48.0,46.0,-100.00,NE,38,7.0,12.0,92,0.00,,,0.60,0.000000,,2013-06-06 06:42:00,
2013-06-06 01:52:00,48.0,46.0,-100.00,NE,38,7.0,12.0,92,0.00,,,0.60,0.000000,,2013-06-06 06:52:00,
2013-06-06 02:02:00,48.0,46.0,-100.00,NE,38,7.0,12.0,92,0.00,,,0.60,0.000000,,2013-06-06 07:02:00,
2013-06-06 02:32:00,48.0,45.0,-100.00,NNE,27,7.0,11.0,90,0.00,,,-99.99,0.000000,,2013-06-06 07:32:00,
2013-06-06 02:42:00,48.0,45.0,-100.00,NNE,27,7.0,11.0,90,0.00,,,-99.99,0.000000,,2013-06-06 07:42:00,
2013-06-06 02:52:00,48.0,45.0,-100.00,NNE,27,7.0,11.0,90,0.00,,,-99.99,0.000000,,2013-06-06 07:52:00,
2013-06-06 03:02:00,48.0,45.0,-100.00,NNE,27,7.0,11.0,90,0.00,,,-99.99,0.000000,,2013-06-06 08:02:00,
2013-06-06 03:32:00,47.0,44.0,-100.00,NE,39,6.0,12.0,90,0.00,,,0.17,0.000000,,2013-06-06 08:32:00,
2013-06-06 03:42:00,47.0,44.0,-100.00,NE,39,6.0,12.0,90,0.00,,,0.17,0.000000,,2013-06-06 08:42:00,
2013-06-06 03:52:00,47.0,44.0,-100.00,NE,39,6.0,12.0,90,0.00,,,0.17,0.000000,,2013-06-06 08:52:00,
2013-06-06 04:02:00,47.0,44.0,-100.00,NE,39,6.0,12.0,90,0.00,,,0.17,0.000000,,2013-06-06 09:02:00,
2013-06-06 04:33:00,47.0,45.0,-100.00,NE,38,8.0,12.0,91,0.00,,,0.16,0.000000,,2013-06-06 09:33:00,
2013-06-06 04:43:00,47.0,45.0,-100.00,NE,38,8.0,12.0,91,0.00,,,0.16,0.000000,,2013-06-06 09:43:00,
2013-06-06 04:53:00,47.0,45.0,-100.00,NE,38,8.0,12.0,91,0.00,,,0.16,0.000000,,2013-06-06 09:53:00,
2013-06-06 05:03:00,47.0,45.0,-100.00,NE,38,8.0,12.0,91,0.00,,,0.16,0.000000,,2013-06-06 10:03:00,
2013-06-06 05:33:00,47.0,45.0,-100.00,NE,44,8.0,11.0,92,0.00,,,0.16,0.000000,,2013-06-06 10:33:00,
2013-06-06 05:42:00,47.0,45.0,-100.00,NE,44,8.0,11.0,92,0.00,,,0.16,0.000000,,2013-06-06 10:42:00,
2013-06-06 05:53:00,47.0,45.0,-100.00,NE,44,8.0,11.0,92,0.00,,,0.16,0.000000,,2013-06-06 10:53:00,
2013-06-06 06:02:00,47.0,45.0,-100.00,NE,44,8.0,11.0,92,0.00,,,0.16,0.000000,,2013-06-06 11:02:00,
2013-06-06 06:32:00,47.0,45.0,-100.00,NE,40,6.0,11.0,93,0.00,,,0.15,4.000000,,2013-06-06 11:32:00,
2013-06-06 06:42:00,47.0,45.0,-100.00,NE,40,6.0,11.0,93,0.00,,,0.15,4.000000,,2013-06-06 11:42:00,
2013-06-06 06:52:00,47.0,45.0,-100.00,NE,40,6.0,11.0,93,0.00,,,0.15,4.000000,,2013-06-06 11:52:00,
2013-06-06 07:02:00,47.0,45.0,-100.00,NE,40,6.0,11.0,93,0.00,,,0.15,4.000000,,2013-06-06 12:02:00,
2013-06-06 07:33:00,47.0,46.0,-100.00,NE,46,7.0,11.0,95,0.00,,,0.15,24.000000,,2013-06-06 12:33:00,
2013-06-06 07:43:00,47.0,46.0,-100.00,NE,46,7.0,11.0,95,0.00,,,0.15,24.000000,,2013-06-06 12:43:00,
2013-06-06 07:53:00,47.0,46.0,-100.00,NE,46,7.0,11.0,95,0.00,,,0.15,24.000000,,2013-06-06 12:53:00,
2013-06-06 08:03:00,47.0,46.0,-100.00,NE,46,7.0,11.0,95,0.00,,,0.15,24.000000,,2013-06-06 13:03:00,
2013-06-06 08:33:00,49.0,47.0,-100.00,NE,53,8.0,12.0,93,0.00,,,0.15,87.000000,,2013-06-06 13:33:00,
2013-06-06 08:43:00,49.0,47.0,-100.00,NE,53,8.0,12.0,93,0.00,,,0.15,87.000000,,2013-06-06 13:43:00,
2013-06-06 08:53:00,49.0,47.0,-100.00,NE,53,8.0,12.0,93,0.00,,,0.15,87.000000,,2013-06-06 13:53:00,
2013-06-06 09:03:00,49.0,47.0,-100.00,NE,53,8.0,12.0,93,0.00,,,0.15,87.000000,,2013-06-06 14:03:00,
2013-06-06 09:33:00,49.0,46.0,-100.00,NE,54,7.0,11.0,91,0.00,,,0.15,116.000000,,2013-06-06 14:33:00,
2013-06-06 09:43:00,49.0,46.0,-100.00,NE,54,7.0,11.0,91,0.00,,,0.15,116.000000,,2013-06-06 14:43:00,
2013-06-06 09:53:00,49.0,46.0,-100.00,NE,54,7.0,11.0,91,0.00,,,0.15,116.000000,,2013-06-06 14:53:00,
2013-06-06 10:03:00,49.0,46.0,-100.00,NE,54,7.0,11.0,91,0.00,,,0.15,116.000000,,2013-06-06 15:03:00,
2013-06-06 11:34:00,52.0,48.0,-100.00,East,80,9.0,14.0,85,-99.99,,,0.15,281.000000,,2013-06-06 16:34:00,
2013-06-06 11:44:00,52.0,48.0,-100.00,East,80,9.0,14.0,85,-99.99,,,0.15,281.000000,,2013-06-06 16:44:00,
2013-06-06 11:53:00,52.0,48.0,-100.00,East,80,9.0,14.0,85,-99.99,,,0.15,281.000000,,2013-06-06 16:53:00,
2013-06-06 12:03:00,52.0,48.0,-100.00,East,80,9.0,14.0,85,-99.99,,,0.15,281.000000,,2013-06-06 17:03:00,
2013-06-06 12:33:00,53.0,48.0,-100.00,ENE,58,7.0,11.0,83,0.00,,,0.15,218.000000,,2013-06-06 17:33:00,
2013-06-06 12:43:00,53.0,48.0,-100.00,ENE,58,7.0,11.0,83,0.00,,,0.15,218.000000,,2013-06-06 17:43:00,
2013-06-06 12:53:00,53.0,48.0,-100.00,ENE,58,7.0,11.0,83,0.00,,,0.15,218.000000,,2013-06-06 17:53:00,
2013-06-06 13:03:00,53.0,48.0,-100.00,ENE,58,7.0,11.0,83,0.00,,,0.15,218.000000,,2013-06-06 18:03:00,
2013-06-06 13:33:00,53.0,48.0,-100.00,ENE,61,7.0,13.0,84,0.00,,,0.15,262.000000,,2013-06-06 18:33:00,
2013-06-06 13:43:00,53.0,48.0,-100.00,ENE,61,7.0,13.0,84,0.00,,,0.15,262.000000,,2013-06-06 18:43:00,
2013-06-06 13:53:00,53.0,48.0,-100.00,ENE,61,7.0,13.0,84,0.00,,,0.15,262.000000,,2013-06-06 18:53:00,
2013-06-06 14:03:00,53.0,48.0,-100.00,ENE,61,7.0,13.0,84,0.00,,,0.15,262.000000,,2013-06-06 19:03:00,
2013-06-06 14:34:00,55.0,48.0,-100.00,ENE,61,9.0,14.0,78,0.00,,,0.08,364.000000,,2013-06-06 19:34:00,
2013-06-06 14:43:00,55.0,48.0,-100.00,ENE,61,9.0,14.0,78,0.00,,,0.08,364.000000,,2013-06-06 19:43:00,
2013-06-06 14:53:00,55.0,48.0,-100.00,ENE,61,9.0,14.0,78,0.00,,,0.08,364.000000,,2013-06-06 19:53:00,
2013-06-06 15:03:00,55.0,48.0,-100.00,ENE,61,9.0,14.0,78,0.00,,,0.08,364.000000,,2013-06-06 20:03:00,
2013-06-06 15:33:00,54.0,48.0,-100.00,ENE,77,6.0,12.0,80,0.00,,,0.00,215.000000,,2013-06-06 20:33:00,
2013-06-06 15:43:00,54.0,48.0,-100.00,ENE,77,6.0,12.0,80,0.00,,,0.00,215.000000,,2013-06-06 20:43:00,
2013-06-06 15:53:00,54.0,48.0,-100.00,ENE,77,6.0,12.0,80,0.00,,,0.00,215.000000,,2013-06-06 20:53:00,
2013-06-06 16:03:00,54.0,48.0,-100.00,ENE,77,6.0,12.0,80,0.00,,,0.00,215.000000,,2013-06-06 21:03:00,
2013-06-06 16:33:00,55.0,48.0,-100.00,ENE,60,8.0,14.0,78,0.00,,,0.00,196.000000,,2013-06-06 21:33:00,
2013-06-06 16:44:00,55.0,48.0,-100.00,ENE,60,8.0,14.0,78,0.00,,,0.00,196.000000,,2013-06-06 21:44:00,
2013-06-06 16:53:00,55.0,48.0,-100.00,ENE,60,8.0,14.0,78,0.00,,,0.00,196.000000,,2013-06-06 21:53:00,
2013-06-06 17:03:00,55.0,48.0,-100.00,ENE,60,8.0,14.0,78,0.00,,,0.00,196.000000,,2013-06-06 22:03:00,
2013-06-06 17:33:00,55.0,48.0,-100.00,NE,35,8.0,11.0,78,0.00,,,0.00,180.000000,,2013-06-06 22:33:00,
2013-06-06 17:43:00,55.0,48.0,-100.00,NE,35,8.0,11.0,78,0.00,,,0.00,180.000000,,2013-06-06 22:43:00,
2013-06-06 17:53:00,55.0,48.0,-100.00,NE,35,8.0,11.0,78,0.00,,,0.00,180.000000,,2013-06-06 22:53:00,
2013-06-06 18:02:00,55.0,48.0,-100.00,NE,35,8.0,11.0,78,0.00,,,0.00,180.000000,,2013-06-06 23:02:00,
2013-06-06 18:33:00,55.0,48.0,-100.00,ENE,62,7.0,10.0,76,0.00,,,0.00,152.000000,,2013-06-06 23:33:00,
2013-06-06 18:43:00,55.0,48.0,-100.00,ENE,62,7.0,10.0,76,0.00,,,0.00,152.000000,,2013-06-06 23:43:00,
2013-06-06 18:52:00,55.0,48.0,-100.00,ENE,62,7.0,10.0,76,0.00,,,0.00,152.000000,,2013-06-06 23:52:00,
2013-06-06 19:02:00,55.0,48.0,-100.00,ENE,62,7.0,10.0,76,0.00,,,0.00,152.000000,,2013-06-07 00:02:00,
2013-06-06 19:32:00,55.0,48.0,-100.00,NE,45,5.0,9.0,76,0.00,,,0.00,102.000000,,2013-06-07 00:32:00,
2013-06-06 19:42:00,55.0,48.0,-100.00,NE,45,5.0,9.0,76,0.00,,,0.00,102.000000,,2013-06-07 00:42:00,
2013-06-06 19:52:00,55.0,48.0,-100.00,NE,45,5.0,9.0,76,0.00,,,0.00,102.000000,,2013-06-07 00:52:00,
2013-06-06 20:02:00,55.0,48.0,-100.00,NE,45,5.0,9.0,76,0.00,,,0.00,102.000000,,2013-06-07 01:02:00,
2013-06-06 20:33:00,55.0,48.0,-100.00,NE,34,3.0,7.0,78,0.00,,,0.00,53.000000,,2013-06-07 01:33:00,
2013-06-06 20:42:00,55.0,48.0,-100.00,NE,34,3.0,7.0,78,0.00,,,0.00,53.000000,,2013-06-07 01:42:00,
2013-06-06 20:52:00,55.0,48.0,-100.00,NE,34,3.0,7.0,78,0.00,,,0.00,53.000000,,2013-06-07 01:52:00,
2013-06-06 21:02:00,55.0,48.0,-100.00,NE,34,3.0,7.0,78,0.00,,,0.00,53.000000,,2013-06-07 02:02:00,
2013-06-06 21:32:00,54.0,49.0,-100.00,NNE,19,2.0,5.0,84,0.00,,,0.00,14.000000,,2013-06-07 02:32:00,
2013-06-06 21:42:00,54.0,49.0,-100.00,NNE,19,2.0,5.0,84,0.00,,,0.00,14.000000,,2013-06-07 02:42:00,
2013-06-06 21:52:00,54.0,49.0,-100.00,NNE,19,2.0,5.0,84,0.00,,,0.00,14.000000,,2013-06-07 02:52:00,
2013-06-06 22:02:00,54.0,49.0,-100.00,NNE,19,2.0,5.0,84,0.00,,,0.00,14.000000,,2013-06-07 03:02:00,
2013-06-06 22:33:00,50.0,48.0,-100.00,ENE,63,2.0,4.0,93,0.00,,,0.00,0.000000,,2013-06-07 03:33:00,
2013-06-06 22:44:00,50.0,48.0,-100.00,ENE,63,2.0,4.0,93,0.00,,,0.00,0.000000,,2013-06-07 03:44:00,
2013-06-06 22:53:00,50.0,48.0,-100.00,ENE,63,2.0,4.0,93,0.00,,,0.00,0.000000,,2013-06-07 03:53:00,
2013-06-06 23:03:00,50.0,48.0,-100.00,ENE,63,2.0,4.0,93,0.00,,,0.00,0.000000,,2013-06-07 04:03:00,
2013-06-06 23:33:00,48.0,47.0,-100.00,ENE,73,2.0,2.0,97,0.00,,,0.00,0.000000,,2013-06-07 04:33:00,
2013-06-06 23:42:00,48.0,47.0,-100.00,ENE,73,2.0,2.0,97,0.00,,,0.00,0.000000,,2013-06-07 04:42:00,
2013-06-06 23:53:00,48.0,47.0,-100.00,ENE,73,2.0,2.0,97,0.00,,,0.00,0.000000,,2013-06-07 04:53:00,